Main page
METAR-TAF:

METAR-TAF

Airports :

Tarvisio, Italy

latitude: 46-30N, longitude: 013-35E, elevation: 777 m

Current weather observation

The report was made 34 minutes ago, at 13:06 UTC
Calm wind
Temperature 9°C
Humidity 87%
Pressure 1015 hPa
Visibility: 4000 m
Few clouds at a height of 500 ft
Few clouds at a height of 1000 ft, Cumulonimbus.
Broken clouds at a height of 2500 ft
thunderstorm, light rain

METAR: LIVO 221306Z 00000KT 4000 -TSRA FEW005 FEW010CB BKN025 09/07 Q1015 RMK OVC VIS MIN 4000

Time: 15:40 (13:40 UTC)


TAF: missing

Weather observations and forecasts of more than 4000 airports (METAR and TAF reports).

The available stations are represented by yellow and red dots on the map.

Hover mouse over dot to see the name of the station.

Then click to see weather observations and forecasts.

To change the map : click on the green buttons with a black cross to zoom in, on the green button with a dash to zoom out, or on the green arrows for adjacent maps.


METAR-TAF: